sensor_id;sensor_type;location;lat;lon;timestamp;pressure;altitude;pressure_sealevel;temperature;humidity
70544;BME280;58097;48.364;-1.224;2023-11-21T00:01:01;99595.59;;;11.60;100.00
70544;BME280;58097;48.364;-1.224;2023-11-21T00:03:29;99596.63;;;11.59;100.00
70544;BME280;58097;48.364;-1.224;2023-11-21T00:05:54;99593.50;;;11.62;100.00
70544;BME280;58097;48.364;-1.224;2023-11-21T00:08:20;99598.19;;;11.62;100.00
70544;BME280;58097;48.364;-1.224;2023-11-21T00:10:45;99594.19;;;11.64;100.00
70544;BME280;58097;48.364;-1.224;2023-11-21T00:13:10;99595.41;;;11.62;100.00
70544;BME280;58097;48.364;-1.224;2023-11-21T00:15:37;99597.13;;;11.63;100.00
70544;BME280;58097;48.364;-1.224;2023-11-21T00:18:03;99596.44;;;11.61;100.00
70544;BME280;58097;48.364;-1.224;2023-11-21T00:20:28;99600.25;;;11.60;100.00
70544;BME280;58097;48.364;-1.224;2023-11-21T00:22:53;99602.34;;;11.58;100.00
70544;BME280;58097;48.364;-1.224;2023-11-21T00:25:19;99606.66;;;11.60;100.00
70544;BME280;58097;48.364;-1.224;2023-11-21T00:27:45;99602.16;;;11.59;100.00
70544;BME280;58097;48.364;-1.224;2023-11-21T00:30:11;99607.34;;;11.62;100.00
70544;BME280;58097;48.364;-1.224;2023-11-21T00:32:36;99611.50;;;11.58;100.00
70544;BME280;58097;48.364;-1.224;2023-11-21T00:35:02;99607.69;;;11.59;100.00
70544;BME280;58097;48.364;-1.224;2023-11-21T00:37:27;99611.16;;;11.61;100.00
70544;BME280;58097;48.364;-1.224;2023-11-21T00:39:53;99603.03;;;11.60;100.00
70544;BME280;58097;48.364;-1.224;2023-11-21T00:42:18;99605.78;;;11.60;100.00
70544;BME280;58097;48.364;-1.224;2023-11-21T00:44:43;99614.94;;;11.52;100.00
70544;BME280;58097;48.364;-1.224;2023-11-21T00:47:09;99611.13;;;11.53;100.00
70544;BME280;58097;48.364;-1.224;2023-11-21T00:49:34;99610.28;;;11.53;100.00
70544;BME280;58097;48.364;-1.224;2023-11-21T00:51:59;99613.22;;;11.51;100.00
70544;BME280;58097;48.364;-1.224;2023-11-21T00:54:26;99613.22;;;11.51;100.00
70544;BME280;58097;48.364;-1.224;2023-11-21T00:56:52;99614.78;;;11.54;100.00
70544;BME280;58097;48.364;-1.224;2023-11-21T00:59:17;99614.59;;;11.47;100.00
70544;BME280;58097;48.364;-1.224;2023-11-21T01:01:42;99609.59;;;11.42;100.00
70544;BME280;58097;48.364;-1.224;2023-11-21T01:04:08;99615.13;;;11.42;100.00
70544;BME280;58097;48.364;-1.224;2023-11-21T01:06:33;99623.09;;;11.45;100.00
70544;BME280;58097;48.364;-1.224;2023-11-21T01:08:58;99619.63;;;11.43;100.00
70544;BME280;58097;48.364;-1.224;2023-11-21T01:11:24;99620.50;;;11.44;100.00
70544;BME280;58097;48.364;-1.224;2023-11-21T01:13:49;99618.59;;;11.44;100.00
70544;BME280;58097;48.364;-1.224;2023-11-21T01:16:14;99625.34;;;11.42;100.00
70544;BME280;58097;48.364;-1.224;2023-11-21T01:18:40;99630.34;;;11.38;100.00
70544;BME280;58097;48.364;-1.224;2023-11-21T01:21:05;99631.91;;;11.41;100.00
70544;BME280;58097;48.364;-1.224;2023-11-21T01:23:32;99637.81;;;11.38;100.00
70544;BME280;58097;48.364;-1.224;2023-11-21T01:25:58;99638.66;;;11.38;100.00
70544;BME280;58097;48.364;-1.224;2023-11-21T01:28:23;99634.16;;;11.37;100.00
70544;BME280;58097;48.364;-1.224;2023-11-21T01:30:49;99643.50;;;11.36;100.00
70544;BME280;58097;48.364;-1.224;2023-11-21T01:33:14;99642.63;;;11.36;100.00
70544;BME280;58097;48.364;-1.224;2023-11-21T01:35:41;99641.09;;;11.33;100.00
70544;BME280;58097;48.364;-1.224;2023-11-21T01:38:06;99643.34;;;11.30;100.00
70544;BME280;58097;48.364;-1.224;2023-11-21T01:40:33;99647.66;;;11.32;100.00
70544;BME280;58097;48.364;-1.224;2023-11-21T01:42:58;99643.50;;;11.28;100.00
70544;BME280;58097;48.364;-1.224;2023-11-21T01:45:24;99646.28;;;11.28;100.00
70544;BME280;58097;48.364;-1.224;2023-11-21T01:47:50;99642.31;;;11.31;100.00
70544;BME280;58097;48.364;-1.224;2023-11-21T01:50:16;99653.84;;;11.26;100.00
70544;BME280;58097;48.364;-1.224;2023-11-21T01:52:44;99655.94;;;11.24;100.00
70544;BME280;58097;48.364;-1.224;2023-11-21T01:55:10;99664.91;;;11.26;100.00
70544;BME280;58097;48.364;-1.224;2023-11-21T01:57:36;99674.25;;;11.25;100.00
70544;BME280;58097;48.364;-1.224;2023-11-21T02:00:03;99664.91;;;11.26;100.00
70544;BME280;58097;48.364;-1.224;2023-11-21T02:02:47;99671.50;;;11.25;100.00
70544;BME280;58097;48.364;-1.224;2023-11-21T02:05:14;99670.63;;;11.25;100.00
70544;BME280;58097;48.364;-1.224;2023-11-21T02:07:40;99672.91;;;11.29;100.00
70544;BME280;58097;48.364;-1.224;2023-11-21T02:10:07;99673.56;;;11.23;100.00
70544;BME280;58097;48.364;-1.224;2023-11-21T02:12:33;99678.75;;;11.18;100.00
70544;BME280;58097;48.364;-1.224;2023-11-21T02:15:00;99681.00;;;11.14;100.00
70544;BME280;58097;48.364;-1.224;2023-11-21T02:17:26;99671.31;;;11.10;100.00
70544;BME280;58097;48.364;-1.224;2023-11-21T02:19:52;99675.81;;;11.03;100.00
70544;BME280;58097;48.364;-1.224;2023-11-21T02:22:19;99674.06;;;11.02;100.00
70544;BME280;58097;48.364;-1.224;2023-11-21T02:24:45;99687.69;;;10.96;100.00
70544;BME280;58097;48.364;-1.224;2023-11-21T02:27:12;99683.19;;;10.95;100.00
70544;BME280;58097;48.364;-1.224;2023-11-21T02:29:38;99687.16;;;10.92;100.00
70544;BME280;58097;48.364;-1.224;2023-11-21T02:32:03;99686.28;;;10.92;100.00
70544;BME280;58097;48.364;-1.224;2023-11-21T02:34:29;99689.75;;;10.85;100.00
70544;BME280;58097;48.364;-1.224;2023-11-21T02:36:54;99688.72;;;10.86;100.00
70544;BME280;58097;48.364;-1.224;2023-11-21T02:39:20;99688.72;;;10.86;100.00
70544;BME280;58097;48.364;-1.224;2023-11-21T02:41:47;99677.66;;;10.86;100.00
70544;BME280;58097;48.364;-1.224;2023-11-21T02:44:13;99679.56;;;10.86;100.00
70544;BME280;58097;48.364;-1.224;2023-11-21T02:46:38;99682.16;;;10.88;100.00
70544;BME280;58097;48.364;-1.224;2023-11-21T02:49:05;99683.72;;;10.90;100.00
70544;BME280;58097;48.364;-1.224;2023-11-21T02:51:35;99685.09;;;10.86;100.00
70544;BME280;58097;48.364;-1.224;2023-11-21T02:54:01;99687.69;;;10.88;100.00
70544;BME280;58097;48.364;-1.224;2023-11-21T02:56:30;99683.69;;;10.82;100.00
70544;BME280;58097;48.364;-1.224;2023-11-21T02:58:56;99694.91;;;10.80;100.00
70544;BME280;58097;48.364;-1.224;2023-11-21T03:01:21;99692.50;;;10.85;100.00
70544;BME280;58097;48.364;-1.224;2023-11-21T03:03:48;99695.28;;;10.85;100.00
70544;BME280;58097;48.364;-1.224;2023-11-21T03:06:16;99699.06;;;10.84;100.00
70544;BME280;58097;48.364;-1.224;2023-11-21T03:08:42;99697.69;;;10.80;100.00
70544;BME280;58097;48.364;-1.224;2023-11-21T03:11:07;99693.03;;;10.81;100.00
70544;BME280;58097;48.364;-1.224;2023-11-21T03:13:33;99701.13;;;10.82;100.00
70544;BME280;58097;48.364;-1.224;2023-11-21T03:15:58;99703.75;;;10.84;100.00
70544;BME280;58097;48.364;-1.224;2023-11-21T03:18:24;99698.38;;;10.82;100.00
70544;BME280;58097;48.364;-1.224;2023-11-21T03:20:49;99696.81;;;10.80;100.00
70544;BME280;58097;48.364;-1.224;2023-11-21T03:23:14;99701.47;;;10.79;100.00
70544;BME280;58097;48.364;-1.224;2023-11-21T03:25:40;99697.50;;;10.82;100.00
70544;BME280;58097;48.364;-1.224;2023-11-21T03:28:05;99705.81;;;10.82;100.00
70544;BME280;58097;48.364;-1.224;2023-11-21T03:30:31;99708.41;;;10.83;100.00
70544;BME280;58097;48.364;-1.224;2023-11-21T03:32:56;99715.66;;;10.84;100.00
70544;BME280;58097;48.364;-1.224;2023-11-21T03:35:22;99708.22;;;10.77;100.00
70544;BME280;58097;48.364;-1.224;2023-11-21T03:37:47;99709.94;;;10.78;100.00
70544;BME280;58097;48.364;-1.224;2023-11-21T03:40:12;99717.91;;;10.81;100.00
70544;BME280;58097;48.364;-1.224;2023-11-21T03:42:38;99715.81;;;10.83;100.00
70544;BME280;58097;48.364;-1.224;2023-11-21T03:45:05;99722.22;;;10.83;100.00
70544;BME280;58097;48.364;-1.224;2023-11-21T03:47:31;99715.31;;;10.79;100.00
70544;BME280;58097;48.364;-1.224;2023-11-21T03:49:56;99715.31;;;10.79;100.00
70544;BME280;58097;48.364;-1.224;2023-11-21T03:52:22;99718.06;;;10.79;100.00
70544;BME280;58097;48.364;-1.224;2023-11-21T03:54:47;99725.50;;;10.79;100.00
70544;BME280;58097;48.364;-1.224;2023-11-21T03:57:12;99728.25;;;10.79;100.00
70544;BME280;58097;48.364;-1.224;2023-11-21T03:59:41;99735.19;;;10.83;100.00
70544;BME280;58097;48.364;-1.224;2023-11-21T04:02:07;99739.16;;;10.80;100.00
70544;BME280;58097;48.364;-1.224;2023-11-21T04:04:33;99738.81;;;10.83;100.00
70544;BME280;58097;48.364;-1.224;2023-11-21T04:06:59;99727.91;;;10.82;100.00
70544;BME280;58097;48.364;-1.224;2023-11-21T04:09:24;99737.75;;;10.76;100.00
70544;BME280;58097;48.364;-1.224;2023-11-21T04:11:53;99738.44;;;10.78;100.00
70544;BME280;58097;48.364;-1.224;2023-11-21T04:14:19;99745.38;;;10.82;100.00
70544;BME280;58097;48.364;-1.224;2023-11-21T04:16:44;99745.53;;;10.81;100.00
70544;BME280;58097;48.364;-1.224;2023-11-21T04:19:10;99747.09;;;10.83;100.00
70544;BME280;58097;48.364;-1.224;2023-11-21T04:21:36;99747.44;;;10.80;100.00
70544;BME280;58097;48.364;-1.224;2023-11-21T04:24:01;99753.84;;;10.81;100.00
70544;BME280;58097;48.364;-1.224;2023-11-21T04:26:27;99754.16;;;10.78;100.00
70544;BME280;58097;48.364;-1.224;2023-11-21T04:28:52;99756.06;;;10.77;100.00
70544;BME280;58097;48.364;-1.224;2023-11-21T04:31:17;99752.44;;;10.77;100.00
70544;BME280;58097;48.364;-1.224;2023-11-21T04:33:43;99766.09;;;10.78;100.00
70544;BME280;58097;48.364;-1.224;2023-11-21T04:36:10;99761.44;;;10.79;100.00
70544;BME280;58097;48.364;-1.224;2023-11-21T04:38:35;99769.88;;;10.77;100.00
70544;BME280;58097;48.364;-1.224;2023-11-21T04:41:01;99762.09;;;10.73;100.00
70544;BME280;58097;48.364;-1.224;2023-11-21T04:43:26;99768.31;;;10.75;100.00
70544;BME280;58097;48.364;-1.224;2023-11-21T04:45:51;99773.84;;;10.75;100.00
70544;BME280;58097;48.364;-1.224;2023-11-21T04:48:17;99767.63;;;10.73;100.00
70544;BME280;58097;48.364;-1.224;2023-11-21T04:50:42;99776.78;;;10.73;100.00
70544;BME280;58097;48.364;-1.224;2023-11-21T04:53:07;99780.41;;;10.74;100.00
70544;BME280;58097;48.364;-1.224;2023-11-21T04:55:33;99777.66;;;10.74;100.00
70544;BME280;58097;48.364;-1.224;2023-11-21T04:57:58;99788.88;;;10.72;100.00
70544;BME280;58097;48.364;-1.224;2023-11-21T05:00:23;99788.88;;;10.72;100.00
70544;BME280;58097;48.364;-1.224;2023-11-21T05:02:49;99787.13;;;10.71;100.00
70544;BME280;58097;48.364;-1.224;2023-11-21T05:05:14;99786.75;;;10.66;100.00
70544;BME280;58097;48.364;-1.224;2023-11-21T05:07:40;99779.00;;;10.70;100.00
70544;BME280;58097;48.364;-1.224;2023-11-21T05:10:07;99784.31;;;10.63;100.00
70544;BME280;58097;48.364;-1.224;2023-11-21T05:12:41;99788.44;;;10.59;100.00
70544;BME280;58097;48.364;-1.224;2023-11-21T05:15:07;99793.97;;;10.59;100.00
70544;BME280;58097;48.364;-1.224;2023-11-21T05:17:37;99795.69;;;10.60;100.00
70544;BME280;58097;48.364;-1.224;2023-11-21T05:20:03;99795.69;;;10.60;100.00
70544;BME280;58097;48.364;-1.224;2023-11-21T05:22:29;99788.28;;;10.61;100.00
70544;BME280;58097;48.364;-1.224;2023-11-21T05:24:55;99792.94;;;10.60;100.00
70544;BME280;58097;48.364;-1.224;2023-11-21T05:27:21;99797.75;;;10.58;100.00
70544;BME280;58097;48.364;-1.224;2023-11-21T05:29:46;99802.75;;;10.54;100.00
70544;BME280;58097;48.364;-1.224;2023-11-21T05:32:11;99810.50;;;10.51;100.00
70544;BME280;58097;48.364;-1.224;2023-11-21T05:34:36;99815.88;;;10.52;100.00
70544;BME280;58097;48.364;-1.224;2023-11-21T05:37:02;99806.00;;;10.50;100.00
70544;BME280;58097;48.364;-1.224;2023-11-21T05:39:27;99818.09;;;10.49;100.00
70544;BME280;58097;48.364;-1.224;2023-11-21T05:41:53;99821.72;;;10.49;100.00
70544;BME280;58097;48.364;-1.224;2023-11-21T05:44:19;99821.72;;;10.49;100.00
70544;BME280;58097;48.364;-1.224;2023-11-21T05:46:44;99820.69;;;10.50;100.00
70544;BME280;58097;48.364;-1.224;2023-11-21T05:49:09;99833.66;;;10.50;100.00
70544;BME280;58097;48.364;-1.224;2023-11-21T05:51:35;99831.91;;;10.49;100.00
70544;BME280;58097;48.364;-1.224;2023-11-21T05:54:01;99828.28;;;10.48;100.00
70544;BME280;58097;48.364;-1.224;2023-11-21T05:56:26;99830.19;;;10.48;100.00
70544;BME280;58097;48.364;-1.224;2023-11-21T05:58:52;99837.75;;;10.46;100.00
70544;BME280;58097;48.364;-1.224;2023-11-21T06:01:17;99829.47;;;10.46;100.00
70544;BME280;58097;48.364;-1.224;2023-11-21T06:03:43;99829.63;;;10.44;100.00
70544;BME280;58097;48.364;-1.224;2023-11-21T06:06:08;99823.41;;;10.42;100.00
70544;BME280;58097;48.364;-1.224;2023-11-21T06:08:33;99832.72;;;10.41;100.00
70544;BME280;58097;48.364;-1.224;2023-11-21T06:10:59;99829.22;;;10.39;100.00
70544;BME280;58097;48.364;-1.224;2023-11-21T06:13:24;99832.88;;;10.40;100.00
70544;BME280;58097;48.364;-1.224;2023-11-21T06:15:52;99841.31;;;10.38;100.00
70544;BME280;58097;48.364;-1.224;2023-11-21T06:18:18;99841.63;;;10.35;100.00
70544;BME280;58097;48.364;-1.224;2023-11-21T06:20:45;99848.34;;;10.33;100.00
70544;BME280;58097;48.364;-1.224;2023-11-21T06:23:10;99851.97;;;10.33;100.00
70544;BME280;58097;48.364;-1.224;2023-11-21T06:25:36;99850.75;;;10.28;100.00
70544;BME280;58097;48.364;-1.224;2023-11-21T06:28:02;99836.94;;;10.28;100.00
70544;BME280;58097;48.364;-1.224;2023-11-21T06:30:27;99842.28;;;10.29;100.00
70544;BME280;58097;48.364;-1.224;2023-11-21T06:32:54;99843.16;;;10.30;100.00
70544;BME280;58097;48.364;-1.224;2023-11-21T06:35:20;99848.69;;;10.30;100.00
70544;BME280;58097;48.364;-1.224;2023-11-21T06:37:45;99848.69;;;10.30;100.00
70544;BME280;58097;48.364;-1.224;2023-11-21T06:40:12;99843.16;;;10.30;100.00
70544;BME280;58097;48.364;-1.224;2023-11-21T06:42:39;99853.19;;;10.31;100.00
70544;BME280;58097;48.364;-1.224;2023-11-21T06:45:04;99857.13;;;10.28;100.00
70544;BME280;58097;48.364;-1.224;2023-11-21T06:47:30;99859.88;;;10.28;100.00
70544;BME280;58097;48.364;-1.224;2023-11-21T06:49:56;99861.63;;;10.29;100.00
70544;BME280;58097;48.364;-1.224;2023-11-21T06:52:21;99865.25;;;10.30;100.00
70544;BME280;58097;48.364;-1.224;2023-11-21T06:54:47;99865.56;;;10.27;100.00
70544;BME280;58097;48.364;-1.224;2023-11-21T06:57:14;99869.69;;;10.22;100.00
70544;BME280;58097;48.364;-1.224;2023-11-21T06:59:40;99870.84;;;10.20;100.00
70544;BME280;58097;48.364;-1.224;2023-11-21T07:02:05;99873.94;;;10.17;100.00
70544;BME280;58097;48.364;-1.224;2023-11-21T07:04:38;99869.59;;;10.14;100.00
70544;BME280;58097;48.364;-1.224;2023-11-21T07:07:03;99879.03;;;10.12;100.00
70544;BME280;58097;48.364;-1.224;2023-11-21T07:09:29;99886.47;;;10.11;100.00
70544;BME280;58097;48.364;-1.224;2023-11-21T07:11:55;99893.31;;;10.07;100.00
70544;BME280;58097;48.364;-1.224;2023-11-21T07:14:21;99885.22;;;10.06;100.00
70544;BME280;58097;48.364;-1.224;2023-11-21T07:16:47;99891.75;;;10.05;100.00
70544;BME280;58097;48.364;-1.224;2023-11-21T07:19:13;99891.03;;;10.03;100.00
70544;BME280;58097;48.364;-1.224;2023-11-21T07:21:39;99895.69;;;10.02;100.00
70544;BME280;58097;48.364;-1.224;2023-11-21T07:24:06;99909.66;;;10.01;100.00
70544;BME280;58097;48.364;-1.224;2023-11-21T07:26:32;99910.84;;;9.98;100.00
70544;BME280;58097;48.364;-1.224;2023-11-21T07:29:04;99914.97;;;9.94;100.00
70544;BME280;58097;48.364;-1.224;2023-11-21T07:31:29;99917.00;;;9.92;100.00
70544;BME280;58097;48.364;-1.224;2023-11-21T07:33:55;99922.13;;;9.87;100.00
70544;BME280;58097;48.364;-1.224;2023-11-21T07:36:22;99917.94;;;9.83;100.00
70544;BME280;58097;48.364;-1.224;2023-11-21T07:38:48;99918.50;;;9.86;100.00
70544;BME280;58097;48.364;-1.224;2023-11-21T07:41:14;99912.28;;;9.84;100.00
70544;BME280;58097;48.364;-1.224;2023-11-21T07:43:46;99921.72;;;9.82;100.00
70544;BME280;58097;48.364;-1.224;2023-11-21T07:46:11;99914.28;;;9.82;100.00
70544;BME280;58097;48.364;-1.224;2023-11-21T07:48:40;99929.88;;;9.83;100.00
70544;BME280;58097;48.364;-1.224;2023-11-21T07:51:08;99939.28;;;9.81;100.00
70544;BME280;58097;48.364;-1.224;2023-11-21T07:53:33;99936.25;;;9.84;100.00
70544;BME280;58097;48.364;-1.224;2023-11-21T07:56:03;99943.50;;;9.85;100.00
70544;BME280;58097;48.364;-1.224;2023-11-21T07:58:29;99943.66;;;9.83;100.00
70544;BME280;58097;48.364;-1.224;2023-11-21T08:00:54;99946.56;;;9.82;100.00
70544;BME280;58097;48.364;-1.224;2023-11-21T08:03:20;99944.66;;;9.82;100.00
70544;BME280;58097;48.364;-1.224;2023-11-21T08:05:46;99944.97;;;9.79;100.00
70544;BME280;58097;48.364;-1.224;2023-11-21T08:08:11;99951.69;;;9.77;100.00
70544;BME280;58097;48.364;-1.224;2023-11-21T08:10:37;99955.16;;;9.79;100.00
70544;BME280;58097;48.364;-1.224;2023-11-21T08:13:03;99961.53;;;9.79;100.00
70544;BME280;58097;48.364;-1.224;2023-11-21T08:15:29;99956.16;;;9.78;100.00
70544;BME280;58097;48.364;-1.224;2023-11-21T08:17:54;99960.81;;;9.77;100.00
70544;BME280;58097;48.364;-1.224;2023-11-21T08:20:19;99971.53;;;9.80;100.00
70544;BME280;58097;48.364;-1.224;2023-11-21T08:22:45;99977.22;;;9.79;100.00
70544;BME280;58097;48.364;-1.224;2023-11-21T08:25:12;99975.03;;;9.82;100.00
70544;BME280;58097;48.364;-1.224;2023-11-21T08:27:38;99982.75;;;9.79;100.00
70544;BME280;58097;48.364;-1.224;2023-11-21T08:30:04;99975.81;;;9.75;100.00
70544;BME280;58097;48.364;-1.224;2023-11-21T08:32:30;99983.78;;;9.78;100.00
70544;BME280;58097;48.364;-1.224;2023-11-21T08:34:57;99983.63;;;9.79;100.00
70544;BME280;58097;48.364;-1.224;2023-11-21T08:37:23;99989.69;;;9.83;100.00
70544;BME280;58097;48.364;-1.224;2023-11-21T08:39:49;99990.59;;;9.83;100.00
70544;BME280;58097;48.364;-1.224;2023-11-21T08:42:14;99982.72;;;9.88;100.00
70544;BME280;58097;48.364;-1.224;2023-11-21T08:44:40;99996.03;;;9.93;100.00
70544;BME280;58097;48.364;-1.224;2023-11-21T08:47:06;99999.19;;;9.98;100.00
70544;BME280;58097;48.364;-1.224;2023-11-21T08:49:32;100000.16;;;10.07;100.00
70544;BME280;58097;48.364;-1.224;2023-11-21T08:51:57;100008.69;;;10.13;100.00
70544;BME280;58097;48.364;-1.224;2023-11-21T08:54:25;100008.19;;;10.28;100.00
70544;BME280;58097;48.364;-1.224;2023-11-21T08:56:51;100005.59;;;10.44;100.00
70544;BME280;58097;48.364;-1.224;2023-11-21T08:59:16;100005.19;;;10.57;100.00
70544;BME280;58097;48.364;-1.224;2023-11-21T09:01:42;100008.81;;;10.57;100.00
70544;BME280;58097;48.364;-1.224;2023-11-21T09:04:07;100016.72;;;10.70;100.00
70544;BME280;58097;48.364;-1.224;2023-11-21T09:06:33;100013.53;;;10.82;100.00
70544;BME280;58097;48.364;-1.224;2023-11-21T09:08:58;100010.66;;;10.92;100.00
70544;BME280;58097;48.364;-1.224;2023-11-21T09:11:24;100014.03;;;11.04;100.00
70544;BME280;58097;48.364;-1.224;2023-11-21T09:13:50;100008.66;;;11.02;100.00
70544;BME280;58097;48.364;-1.224;2023-11-21T09:16:16;100016.97;;;11.02;100.00
70544;BME280;58097;48.364;-1.224;2023-11-21T09:18:42;100018.44;;;10.97;100.00
70544;BME280;58097;48.364;-1.224;2023-11-21T09:21:07;100021.63;;;11.02;100.00
70544;BME280;58097;48.364;-1.224;2023-11-21T09:23:34;100027.78;;;10.96;100.00
70544;BME280;58097;48.364;-1.224;2023-11-21T09:25:59;100026.38;;;10.92;100.00
70544;BME280;58097;48.364;-1.224;2023-11-21T09:28:26;100038.63;;;10.89;100.00
70544;BME280;58097;48.364;-1.224;2023-11-21T09:30:52;100038.25;;;10.84;100.00
70544;BME280;58097;48.364;-1.224;2023-11-21T09:33:18;100041.38;;;10.89;100.00
70544;BME280;58097;48.364;-1.224;2023-11-21T09:35:43;100044.84;;;10.91;100.00
70544;BME280;58097;48.364;-1.224;2023-11-21T09:38:09;100045.81;;;11.00;100.00
70544;BME280;58097;48.364;-1.224;2023-11-21T09:40:36;100057.09;;;11.06;100.00
70544;BME280;58097;48.364;-1.224;2023-11-21T09:43:17;100057.63;;;11.10;100.00
70544;BME280;58097;48.364;-1.224;2023-11-21T09:45:47;100067.19;;;11.15;100.00
70544;BME280;58097;48.364;-1.224;2023-11-21T09:48:16;100070.16;;;11.22;100.00
70544;BME280;58097;48.364;-1.224;2023-11-21T09:50:43;100068.66;;;11.28;100.00
70544;BME280;58097;48.364;-1.224;2023-11-21T09:53:19;100066.13;;;11.34;100.00
70544;BME280;58097;48.364;-1.224;2023-11-21T09:55:51;100065.97;;;11.36;100.00
70544;BME280;58097;48.364;-1.224;2023-11-21T09:58:18;100078.63;;;11.46;100.00
70544;BME280;58097;48.364;-1.224;2023-11-21T10:00:46;100075.53;;;11.49;100.00
70544;BME280;58097;48.364;-1.224;2023-11-21T10:03:12;100081.28;;;11.56;100.00
70544;BME280;58097;48.364;-1.224;2023-11-21T10:05:38;100087.38;;;11.60;100.00
70544;BME280;58097;48.364;-1.224;2023-11-21T10:08:07;100088.09;;;11.62;100.00
70544;BME280;58097;48.364;-1.224;2023-11-21T10:10:32;100091.59;;;11.72;100.00
70544;BME280;58097;48.364;-1.224;2023-11-21T10:13:02;100092.69;;;11.79;100.00
70544;BME280;58097;48.364;-1.224;2023-11-21T10:15:29;100101.72;;;11.81;100.00
70544;BME280;58097;48.364;-1.224;2023-11-21T10:17:55;100111.28;;;11.87;100.00
70544;BME280;58097;48.364;-1.224;2023-11-21T10:20:23;100110.72;;;11.83;100.00
70544;BME280;58097;48.364;-1.224;2023-11-21T10:22:50;100116.44;;;11.82;100.00
70544;BME280;58097;48.364;-1.224;2023-11-21T10:25:15;100124.28;;;11.86;100.00
70544;BME280;58097;48.364;-1.224;2023-11-21T10:27:42;100118.75;;;11.94;100.00
70544;BME280;58097;48.364;-1.224;2023-11-21T10:30:09;100126.78;;;12.05;100.00
70544;BME280;58097;48.364;-1.224;2023-11-21T10:32:39;100129.88;;;12.02;100.00
70544;BME280;58097;48.364;-1.224;2023-11-21T10:35:06;100129.00;;;12.02;100.00
70544;BME280;58097;48.364;-1.224;2023-11-21T10:37:36;100138.88;;;12.04;100.00
70544;BME280;58097;48.364;-1.224;2023-11-21T10:40:07;100130.94;;;12.09;100.00
70544;BME280;58097;48.364;-1.224;2023-11-21T10:42:37;100131.66;;;12.12;100.00
70544;BME280;58097;48.364;-1.224;2023-11-21T10:45:04;100133.53;;;12.11;100.00
70544;BME280;58097;48.364;-1.224;2023-11-21T10:47:34;100146.88;;;12.07;100.00
70544;BME280;58097;48.364;-1.224;2023-11-21T10:50:01;100145.47;;;12.03;100.00
70544;BME280;58097;48.364;-1.224;2023-11-21T10:52:27;100155.69;;;12.03;100.00
70544;BME280;58097;48.364;-1.224;2023-11-21T10:54:52;100154.81;;;12.02;100.00
70544;BME280;58097;48.364;-1.224;2023-11-21T10:57:18;100148.59;;;12.08;100.00
70544;BME280;58097;48.364;-1.224;2023-11-21T10:59:47;100158.75;;;12.26;100.00
70544;BME280;58097;48.364;-1.224;2023-11-21T11:02:23;100154.63;;;12.38;100.00
70544;BME280;58097;48.364;-1.224;2023-11-21T11:04:52;100156.38;;;12.39;100.00
70544;BME280;58097;48.364;-1.224;2023-11-21T11:07:17;100155.81;;;12.27;100.00
70544;BME280;58097;48.364;-1.224;2023-11-21T11:09:44;100152.50;;;12.24;100.00
70544;BME280;58097;48.364;-1.224;2023-11-21T11:12:10;100155.06;;;12.17;100.00
70544;BME280;58097;48.364;-1.224;2023-11-21T11:14:40;100142.72;;;12.12;100.00
70544;BME280;58097;48.364;-1.224;2023-11-21T11:17:07;100140.78;;;12.04;100.00
70544;BME280;58097;48.364;-1.224;2023-11-21T11:19:34;100140.91;;;11.94;100.00
70544;BME280;58097;48.364;-1.224;2023-11-21T11:28:03;100133.91;;;11.82;100.00
70544;BME280;58097;48.364;-1.224;2023-11-21T11:35:59;100147.53;;;12.01;100.00
70544;BME280;58097;48.364;-1.224;2023-11-21T11:38:27;100160.78;;;12.16;100.00
70544;BME280;58097;48.364;-1.224;2023-11-21T11:40:56;100160.81;;;12.24;100.00
70544;BME280;58097;48.364;-1.224;2023-11-21T11:43:27;100155.63;;;12.29;100.00
70544;BME280;58097;48.364;-1.224;2023-11-21T11:45:57;100152.34;;;12.33;100.00
70544;BME280;58097;48.364;-1.224;2023-11-21T11:48:24;100160.41;;;12.45;100.00
70544;BME280;58097;48.364;-1.224;2023-11-21T11:51:20;100162.69;;;12.65;100.00
70544;BME280;58097;48.364;-1.224;2023-11-21T11:53:49;100158.25;;;12.89;100.00
70544;BME280;58097;48.364;-1.224;2023-11-21T11:58:55;100150.88;;;13.22;100.00
70544;BME280;58097;48.364;-1.224;2023-11-21T12:01:21;100150.00;;;13.21;100.00
70544;BME280;58097;48.364;-1.224;2023-11-21T12:06:45;100161.41;;;13.02;100.00
70544;BME280;58097;48.364;-1.224;2023-11-21T12:09:24;100169.53;;;12.95;100.00
70544;BME280;58097;48.364;-1.224;2023-11-21T12:11:49;100175.25;;;12.86;100.00
70544;BME280;58097;48.364;-1.224;2023-11-21T12:14:15;100178.00;;;12.86;100.00
70544;BME280;58097;48.364;-1.224;2023-11-21T12:16:41;100179.41;;;12.82;100.00
70544;BME280;58097;48.364;-1.224;2023-11-21T12:19:08;100176.44;;;12.83;100.00
70544;BME280;58097;48.364;-1.224;2023-11-21T12:21:36;100173.88;;;12.90;100.00
70544;BME280;58097;48.364;-1.224;2023-11-21T12:24:03;100176.13;;;12.86;100.00
70544;BME280;58097;48.364;-1.224;2023-11-21T12:26:29;100172.13;;;12.89;100.00
70544;BME280;58097;48.364;-1.224;2023-11-21T12:28:54;100169.72;;;12.94;100.00
70544;BME280;58097;48.364;-1.224;2023-11-21T12:31:21;100171.44;;;12.95;100.00
70544;BME280;58097;48.364;-1.224;2023-11-21T12:33:47;100177.16;;;12.93;100.00
70544;BME280;58097;48.364;-1.224;2023-11-21T12:36:12;100175.06;;;12.87;100.00
70544;BME280;58097;48.364;-1.224;2023-11-21T12:38:38;100173.84;;;12.82;100.00
70544;BME280;58097;48.364;-1.224;2023-11-21T12:41:04;100178.34;;;12.75;100.00
70544;BME280;58097;48.364;-1.224;2023-11-21T12:43:30;100184.94;;;12.74;100.00
70544;BME280;58097;48.364;-1.224;2023-11-21T12:46:06;100190.94;;;12.61;100.00
70544;BME280;58097;48.364;-1.224;2023-11-21T12:48:32;100197.66;;;12.50;100.00
70544;BME280;58097;48.364;-1.224;2023-11-21T12:50:57;100192.44;;;12.47;100.00